Portada
METAR-TAF:

METAR-TAF

Aeropuertos :

Uagadugú, Burkina Faso

Aeropuerto de Uagadugú

latitud: 12-21N, longitud: 001-31W, altitud: 316 m

Observación

El informe se hizo hace 30 minutos, a las 09:00 UTC
Viento 10 kt del suroeste
Temperatura 34°C
Humedad 44%
Presión 1013 hPa
Visibilidad: 8000 m

METAR: DFFD 230900Z 23010KT 8000 NSC 34/20 Q1013 NOSIG

Hora: 09:30 (09:30 UTC)

Pronóstico

El informe se hizo hace 4 horas y 30 minutos, a las 05:00 UTC
Pronóstico válido del 23 a las 06 UTC al 24 a las 12 UTC
Viento 8 kt con dirección variable
Visibilidad 10 km o más
sin nubes por debajo de 1500 m y sin presencia de cumulonimbus.
Temporalmente
del 23 a las 15 UTC al 23 a las 24 UTC
Escasas nubes a una altura de 2600 ft
Escasas nubes a una altura de 4000 ft, Cumulonimbus.
tormenta

TAF: DFFD 230500Z 2306/2412 VRB08KT CAVOK TEMPO 2315/2324 TS FEW026 FEW040CB

Observaciones y pronósticos meteorológicos de más de 4000 aeropuertos (mensajes METAR y TAF).

Los puntos amarillos y rojos representan las estaciones disponibles.

Ponga el ratón en el punto deseado para ver el nombre de la estación.

Haga clic para ver las observaciones y los pronósticos meteorológicos.

Para cambiar el mapa : haga clic en los botones verdes con una cruz de color negro para hacer un zoom, en el botón verde con un guión para alejar o en las flechas verdes para mapas adyacentes.


METAR-TAF: